Time;durP1;ratioP1;P1;durP2;ratioP2;P2;SDS_P1;SDS_P2;PMS_P1;PMS_P2;Temp;Humidity;BMP_temperature;BMP_pressure;BME280_temperature;BME280_humidity;BME280_pressure;Samples;Min_cycle;Max_cycle;Signal;HPM_P1;HPM_P2
2023/03/03 00:01:46;;;;;;;46.00;18.67;;;0.90;99.90;;;;;;4842164;29;20050;-81
2023/03/03 00:04:12;;;;;;;39.43;17.63;;;0.90;99.90;;;;;;4826530;29;20518;-81
2023/03/03 00:06:41;;;;;;;39.10;16.30;;;0.80;99.90;;;;;;4826346;29;20087;-82
2023/03/03 00:09:06;;;;;;;41.20;17.37;;;1.00;99.90;;;;;;4825371;29;20149;-81
2023/03/03 00:11:32;;;;;;;38.97;17.43;;;1.00;99.90;;;;;;4842338;29;20046;-81
2023/03/03 00:21:29;;;;;;;31.40;14.83;;;1.00;99.90;;;;;;4825185;29;20050;-81
2023/03/03 00:24:21;;;;;;;35.00;14.67;;;1.00;99.90;;;;;;4824937;29;20483;-81
2023/03/03 00:26:54;;;;;;;33.13;15.23;;;1.00;99.90;;;;;;4825549;29;20150;-81
2023/03/03 00:30:07;;;;;;;33.42;14.75;;;0.90;99.90;;;;;;4825438;29;20868;-81
2023/03/03 00:33:05;;;;;;;33.53;15.67;;;0.80;99.90;;;;;;4842302;29;20162;-81
2023/03/03 00:35:42;;;;;;;34.97;16.03;;;1.10;99.90;;;;;;4824996;29;20132;-81
2023/03/03 00:38:26;;;;;;;36.87;15.40;;;0.70;99.90;;;;;;4827883;29;20122;-81
2023/03/03 00:40:52;;;;;;;38.17;15.98;;;1.90;99.90;;;;;;4845098;29;20058;-81
2023/03/03 00:43:24;;;;;;;33.07;15.17;;;0.30;99.90;;;;;;4829542;29;20045;-81
2023/03/03 00:46:02;;;;;;;33.83;14.70;;;0.90;99.90;;;;;;4828131;29;20513;-81
2023/03/03 00:48:37;;;;;;;32.30;14.53;;;1.10;99.90;;;;;;4859560;29;20042;-81
2023/03/03 00:51:26;;;;;;;32.57;14.43;;;0.00;99.90;;;;;;4843315;29;20158;-81
2023/03/03 00:53:53;;;;;;;35.13;16.13;;;1.30;99.90;;;;;;4826515;29;20111;-81
2023/03/03 00:56:18;;;;;;;34.03;15.47;;;1.90;99.90;;;;;;4841500;29;20886;-81
2023/03/03 00:59:02;;;;;;;30.27;14.23;;;0.90;99.90;;;;;;4842230;29;20050;-81
2023/03/03 01:15:45;;;;;;;39.73;16.43;;;1.70;99.90;;;;;;4841596;29;20052;-82
2023/03/03 01:18:11;;;;;;;38.23;16.30;;;0.90;99.90;;;;;;4824976;29;20494;-81
2023/03/03 01:20:58;;;;;;;39.53;16.50;;;0.80;99.90;;;;;;4825590;29;20057;-82
2023/03/03 01:23:43;;;;;;;37.70;16.83;;;0.90;99.90;;;;;;4842037;29;20134;-81
2023/03/03 01:26:09;;;;;;;33.23;15.43;;;0.70;99.90;;;;;;4825002;29;20145;-81
2023/03/03 01:28:35;;;;;;;32.43;14.17;;;0.70;99.90;;;;;;4825027;29;20129;-82
2023/03/03 01:31:02;;;;;;;36.07;15.10;;;0.70;99.90;;;;;;4841919;29;20414;-81
2023/03/03 01:40:11;;;;;;;41.60;17.63;;;1.70;99.90;;;;;;4855120;23;20533;-81
2023/03/03 01:42:36;;;;;;;45.57;18.43;;;0.80;99.90;;;;;;4841440;29;20492;-82
2023/03/03 01:45:24;;;;;;;47.10;19.20;;;1.70;99.90;;;;;;4842052;29;20085;-81
2023/03/03 01:47:58;;;;;;;42.63;17.50;;;-0.40;99.90;;;;;;4825611;29;20049;-81
2023/03/03 01:51:02;;;;;;;42.17;17.90;;;0.80;99.90;;;;;;4824758;29;20069;-81
2023/03/03 01:53:43;;;;;;;44.38;18.35;;;0.80;99.90;;;;;;4840746;29;20402;-81
2023/03/03 01:56:41;;;;;;;46.93;18.47;;;0.50;99.90;;;;;;4825208;29;20057;-81
2023/03/03 01:59:44;;;;;;;47.27;17.20;;;1.50;99.90;;;;;;4843135;29;20098;-81
2023/03/03 02:02:16;;;;;;;48.37;19.77;;;1.10;99.90;;;;;;4828717;29;20054;-82
2023/03/03 02:04:54;;;;;;;44.63;18.23;;;1.20;99.90;;;;;;4828446;29;20050;-81
2023/03/03 02:07:42;;;;;;;45.17;17.53;;;0.60;99.90;;;;;;4827978;29;20089;-81
2023/03/03 02:10:20;;;;;;;39.37;16.63;;;1.60;99.90;;;;;;4846806;29;20388;-81
2023/03/03 02:12:53;;;;;;;42.23;16.63;;;0.70;99.90;;;;;;4848530;29;20033;-81
2023/03/03 02:15:31;;;;;;;37.40;15.23;;;0.70;99.90;;;;;;4830588;29;20115;-82
2023/03/03 02:18:14;;;;;;;49.50;16.17;;;0.90;99.90;;;;;;4849062;29;20057;-80
2023/03/03 02:20:51;;;;;;;39.07;15.33;;;0.90;99.90;;;;;;4865173;29;20034;-82
2023/03/03 02:23:35;;;;;;;42.97;15.80;;;0.90;99.90;;;;;;4829231;29;20058;-82
2023/03/03 02:26:05;;;;;;;41.70;14.63;;;0.90;99.90;;;;;;4845317;29;20144;-81
2023/03/03 02:28:33;;;;;;;41.90;14.13;;;0.90;99.90;;;;;;4827377;29;20050;-81
2023/03/03 02:31:17;;;;;;;38.93;14.47;;;0.90;99.90;;;;;;4844816;29;20050;-81
2023/03/03 02:33:46;;;;;;;44.03;15.98;;;0.70;99.90;;;;;;4827904;29;20220;-81
2023/03/03 02:36:36;;;;;;;39.20;14.23;;;0.60;99.90;;;;;;4827213;29;20042;-81
2023/03/03 02:39:10;;;;;;;46.90;14.80;;;2.10;99.90;;;;;;4837919;29;20057;-82
2023/03/03 02:41:44;;;;;;;36.33;14.27;;;0.90;99.90;;;;;;4843343;29;20058;-81
2023/03/03 02:44:13;;;;;;;50.15;16.10;;;0.90;99.90;;;;;;4844837;29;20049;-81
2023/03/03 02:46:47;;;;;;;41.87;14.60;;;0.80;99.90;;;;;;4856524;24;20053;-81
2023/03/03 02:49:15;;;;;;;47.42;15.95;;;0.80;99.90;;;;;;4827312;29;20038;-81
2023/03/03 03:13:50;;;;;;;75.25;17.70;;;0.80;99.90;;;;;;4902670;23;20131;-81
2023/03/03 03:16:41;;;;;;;72.20;18.17;;;0.50;99.90;;;;;;4844210;29;20060;-81
2023/03/03 03:19:07;;;;;;;95.73;17.73;;;0.40;99.90;;;;;;4827654;29;20136;-82
2023/03/03 03:21:33;;;;;;;95.20;18.43;;;0.50;99.90;;;;;;4827114;29;20050;-82
2023/03/03 03:24:02;;;;;;;97.97;16.30;;;1.00;99.90;;;;;;4826531;29;20181;-82
2023/03/03 03:27:09;;;;;;;96.73;18.43;;;0.80;99.90;;;;;;4843485;29;20046;-82
2023/03/03 03:29:34;;;;;;;78.30;17.33;;;-0.50;99.90;;;;;;4822580;29;20046;-82
2023/03/03 03:32:00;;;;;;;70.60;15.30;;;0.50;99.90;;;;;;4807597;29;20054;-82
2023/03/03 03:34:38;;;;;;;81.63;15.93;;;0.70;99.90;;;;;;4807713;29;20046;-82
2023/03/03 03:37:34;;;;;;;90.97;15.10;;;0.50;99.90;;;;;;4814560;29;20069;-82
2023/03/03 03:40:10;;;;;;;61.83;14.93;;;0.30;99.90;;;;;;4842151;29;20515;-82
2023/03/03 03:42:37;;;;;;;92.57;15.43;;;0.80;99.90;;;;;;4843110;29;20076;-82
2023/03/03 03:45:03;;;;;;;72.33;14.77;;;0.30;99.90;;;;;;4835078;29;20503;-82
2023/03/03 03:47:29;;;;;;;73.73;14.90;;;0.70;99.90;;;;;;4827649;29;20094;-80
2023/03/03 03:49:54;;;;;;;78.40;14.70;;;0.50;99.90;;;;;;4827770;29;20092;-80
2023/03/03 03:52:20;;;;;;;93.03;16.37;;;1.40;99.90;;;;;;4832945;29;20391;-82
2023/03/03 03:54:46;;;;;;;100.70;16.17;;;2.00;99.90;;;;;;4831870;29;20517;-82
2023/03/03 03:57:32;;;;;;;78.30;15.47;;;2.30;99.90;;;;;;4826793;29;20563;-82
2023/03/03 03:59:58;;;;;;;72.03;14.90;;;1.00;99.90;;;;;;4826000;29;20068;-81
2023/03/03 04:02:23;;;;;;;66.73;13.50;;;0.70;99.90;;;;;;4826592;29;20046;-82
2023/03/03 04:05:05;;;;;;;94.10;14.77;;;2.40;99.90;;;;;;4843147;29;20403;-82
2023/03/03 04:07:43;;;;;;;74.40;14.17;;;0.80;99.90;;;;;;4825959;29;20054;-80
2023/03/03 04:10:43;;;;;;;74.70;15.00;;;2.20;99.90;;;;;;4842937;29;20046;-80
2023/03/03 04:13:38;;;;;;;55.03;14.53;;;1.30;99.90;;;;;;4825310;29;20565;-80
2023/03/03 04:16:18;;;;;;;65.07;14.63;;;0.70;99.90;;;;;;4842911;29;20053;-81
2023/03/03 04:19:03;;;;;;;77.23;14.67;;;0.50;99.90;;;;;;4842462;29;20049;-80
2023/03/03 04:21:31;;;;;;;102.40;15.87;;;0.60;99.90;;;;;;4841601;29;20050;-80
2023/03/03 04:23:57;;;;;;;78.70;13.53;;;1.40;99.90;;;;;;4825756;29;20447;-80
2023/03/03 04:26:22;;;;;;;67.17;12.10;;;1.00;99.90;;;;;;4842709;29;20106;-80
2023/03/03 04:29:04;;;;;;;64.47;12.63;;;1.90;99.90;;;;;;4825215;29;20083;-80
2023/03/03 04:31:30;;;;;;;51.60;11.47;;;2.90;99.90;;;;;;4835017;29;20050;-82
2023/03/03 04:33:55;;;;;;;56.10;11.67;;;0.70;99.90;;;;;;4861194;29;20050;-82
2023/03/03 04:36:21;;;;;;;128.80;15.20;;;2.40;99.90;;;;;;4843287;29;20045;-82
2023/03/03 04:38:47;;;;;;;66.20;11.10;;;0.90;99.90;;;;;;4860717;29;20109;-82
2023/03/03 04:41:14;;;;;;;62.23;12.00;;;0.90;99.90;;;;;;4860040;29;20495;-82
2023/03/03 04:43:56;;;;;;;69.43;12.03;;;0.70;99.90;;;;;;4859213;29;20132;-82
2023/03/03 04:46:21;;;;;;;77.30;12.43;;;1.90;99.90;;;;;;4860970;29;20060;-80
2023/03/03 04:48:47;;;;;;;65.23;12.03;;;1.60;99.90;;;;;;4859319;29;20607;-80
2023/03/03 04:51:15;;;;;;;82.80;13.40;;;1.50;99.90;;;;;;4844308;29;20110;-80
2023/03/03 04:53:58;;;;;;;67.97;11.97;;;0.70;99.90;;;;;;4860376;29;20041;-80
2023/03/03 05:04:09;;;;;;;58.93;11.90;;;1.00;99.90;;;;;;5098908;23;20124;-80
2023/03/03 05:06:35;;;;;;;51.80;11.90;;;1.00;99.90;;;;;;4806661;29;20046;-80
2023/03/03 05:09:01;;;;;;;102.90;14.87;;;1.00;99.90;;;;;;4823598;29;20130;-80
2023/03/03 05:11:26;;;;;;;58.70;12.30;;;1.00;99.90;;;;;;4823178;29;20048;-81
2023/03/03 05:13:52;;;;;;;67.00;12.67;;;2.00;99.90;;;;;;4808597;29;20058;-82
2023/03/03 05:16:18;;;;;;;145.17;16.23;;;1.00;99.90;;;;;;4823772;29;20051;-83
2023/03/03 05:18:44;;;;;;;98.30;14.27;;;1.00;99.90;;;;;;4845601;29;20041;-82
2023/03/03 05:24:23;;;;;;;237.07;20.47;;;0.40;99.90;;;;;;4880360;29;20206;-83
2023/03/03 05:26:48;;;;;;;74.17;14.23;;;0.80;99.90;;;;;;4877766;29;20038;-81
2023/03/03 05:29:42;;;;;;;119.23;16.03;;;2.00;99.90;;;;;;4843672;29;20151;-80
2023/03/03 05:32:08;;;;;;;143.63;17.43;;;1.90;99.90;;;;;;4859571;29;20498;-80
2023/03/03 05:34:52;;;;;;;94.87;15.30;;;1.10;99.90;;;;;;4845636;29;20054;-82
2023/03/03 05:37:17;;;;;;;205.18;20.15;;;2.30;99.90;;;;;;4864009;29;20042;-82
2023/03/03 05:47:21;;;;;;;153.63;17.63;;;0.40;99.90;;;;;;4863910;29;20580;-82
2023/03/03 05:49:47;;;;;;;121.67;15.73;;;0.90;99.90;;;;;;4863398;29;20057;-82
2023/03/03 05:52:23;;;;;;;47.17;11.83;;;0.90;99.90;;;;;;4846450;29;20052;-80
2023/03/03 05:54:49;;;;;;;195.90;20.20;;;0.90;99.90;;;;;;4847504;29;20406;-80
2023/03/03 05:57:14;;;;;;;95.83;14.23;;;0.90;99.90;;;;;;4847176;29;20046;-80
2023/03/03 05:59:52;;;;;;;107.13;15.47;;;1.20;99.90;;;;;;4845989;29;20056;-80
2023/03/03 06:02:17;;;;;;;58.80;13.47;;;0.90;99.90;;;;;;4846820;29;20085;-82
2023/03/03 06:04:43;;;;;;;154.03;18.20;;;0.90;99.90;;;;;;4846865;29;20056;-82
2023/03/03 06:07:15;;;;;;;136.27;16.43;;;1.80;99.90;;;;;;4846609;29;20057;-80
2023/03/03 06:09:40;;;;;;;89.17;15.53;;;1.10;99.90;;;;;;4863060;29;20053;-80
2023/03/03 06:12:06;;;;;;;104.80;16.77;;;2.70;99.90;;;;;;4863448;29;20081;-82
2023/03/03 06:14:41;;;;;;;178.43;18.30;;;1.30;99.90;;;;;;4862512;29;20050;-82
2023/03/03 06:17:10;;;;;;;130.73;17.23;;;1.30;99.90;;;;;;4846490;29;20049;-80
2023/03/03 06:19:51;;;;;;;136.13;18.97;;;1.30;99.90;;;;;;4845473;29;20041;-82
2023/03/03 06:22:17;;;;;;;81.63;15.20;;;1.90;99.90;;;;;;5078333;23;20016;-83
2023/03/03 06:25:08;;;;;;;121.27;16.83;;;1.00;99.90;;;;;;4842202;29;20069;-82
2023/03/03 06:27:34;;;;;;;92.27;14.67;;;1.20;99.90;;;;;;4827089;29;20057;-82
2023/03/03 06:30:00;;;;;;;89.93;16.23;;;1.90;99.90;;;;;;4827874;29;20057;-82
2023/03/03 06:32:25;;;;;;;61.27;13.93;;;1.00;99.90;;;;;;4827855;29;20102;-82
2023/03/03 06:34:51;;;;;;;51.83;12.90;;;0.90;99.90;;;;;;4827382;29;20074;-82
2023/03/03 06:37:32;;;;;;;50.23;14.10;;;1.00;99.90;;;;;;4844108;29;20400;-82
2023/03/03 06:39:57;;;;;;;77.87;15.77;;;0.90;99.90;;;;;;4844339;29;20105;-82
2023/03/03 06:42:23;;;;;;;60.17;14.47;;;2.50;99.90;;;;;;4843832;29;20073;-83
2023/03/03 06:44:49;;;;;;;56.00;14.60;;;1.20;99.90;;;;;;4829463;29;20410;-82
2023/03/03 06:47:35;;;;;;;56.73;14.80;;;1.20;99.90;;;;;;4848208;29;20077;-82
2023/03/03 06:50:01;;;;;;;43.83;13.63;;;1.30;99.90;;;;;;4828776;29;20056;-82
2023/03/03 06:52:26;;;;;;;50.17;13.73;;;1.20;99.90;;;;;;4829502;29;20144;-81
2023/03/03 06:55:00;;;;;;;50.17;14.07;;;1.20;99.90;;;;;;4849154;29;20079;-79
2023/03/03 06:57:31;;;;;;;43.60;13.83;;;1.30;99.90;;;;;;4828542;29;20057;-87
2023/03/03 07:00:12;;;;;;;41.97;14.37;;;1.20;99.90;;;;;;4845997;29;20399;-87
2023/03/03 07:02:38;;;;;;;44.50;13.87;;;1.60;99.90;;;;;;4843853;29;20053;-87
2023/03/03 07:05:11;;;;;;;43.90;13.80;;;1.30;99.90;;;;;;4829547;29;20041;-87
2023/03/03 07:07:53;;;;;;;39.72;13.15;;;1.60;99.90;;;;;;4830240;29;20053;-89
2023/03/03 07:10:25;;;;;;;33.50;11.73;;;3.40;99.90;;;;;;4827027;29;20529;-86
2023/03/03 07:16:59;;;;;;;34.20;12.43;;;2.20;99.90;;;;;;4831524;29;20055;-86
2023/03/03 07:19:48;;;;;;;39.10;12.70;;;1.80;99.90;;;;;;4819883;29;20560;-87
2023/03/03 07:22:46;;;;;;;31.43;11.87;;;1.80;99.90;;;;;;4808845;29;20155;-88
2023/03/03 07:29:30;;;;;;;37.40;12.80;;;1.10;99.90;;;;;;4840829;29;20068;-89
2023/03/03 07:31:58;;;;;;;36.93;12.83;;;1.90;99.90;;;;;;4842818;29;20050;-89
2023/03/03 07:34:53;;;;;;;38.50;14.00;;;2.40;99.90;;;;;;4827699;29;20069;-88
2023/03/03 07:37:34;;;;;;;37.73;13.40;;;2.20;99.90;;;;;;4826684;29;20525;-90
2023/03/03 07:46:21;;;;;;;31.80;11.40;;;2.20;99.90;;;;;;4873209;23;20527;-92
2023/03/03 07:48:47;;;;;;;28.80;12.00;;;2.50;99.90;;;;;;4827205;29;20495;-92
2023/03/03 07:51:40;;;;;;;30.53;11.63;;;2.40;99.90;;;;;;4842838;29;20050;-92
2023/03/03 07:54:53;;;;;;;30.13;11.50;;;2.40;99.90;;;;;;4970115;24;20065;-90
2023/03/03 07:57:35;;;;;;;31.17;12.17;;;1.50;99.90;;;;;;4829152;29;20054;-90
2023/03/03 08:00:13;;;;;;;37.00;12.60;;;3.80;99.90;;;;;;4829608;29;20041;-92
2023/03/03 08:02:43;;;;;;;28.90;11.83;;;3.50;99.90;;;;;;4813295;29;20058;-86
2023/03/03 08:08:46;;;;;;;28.23;11.27;;;3.30;99.90;;;;;;5198819;24;20081;-91
2023/03/03 08:11:28;;;;;;;30.60;11.77;;;3.10;99.90;;;;;;4819681;24;20054;-91
2023/03/03 08:13:55;;;;;;;29.20;11.00;;;3.30;99.90;;;;;;4973555;24;20063;-92
2023/03/03 08:22:58;;;;;;;24.10;10.67;;;3.20;99.90;;;;;;5144796;23;20119;-91
2023/03/03 08:29:07;;;;;;;23.87;10.47;;;4.10;99.90;;;;;;4787920;30;20135;-90
2023/03/03 08:34:04;;;;;;;24.13;10.73;;;3.50;99.90;;;;;;4881203;24;20107;-89
2023/03/03 08:36:46;;;;;;;24.00;9.83;;;4.90;99.90;;;;;;4830088;29;20042;-88
2023/03/03 08:39:21;;;;;;;21.87;9.70;;;4.10;99.90;;;;;;4826744;29;20502;-87
2023/03/03 08:42:04;;;;;;;23.13;10.10;;;3.80;99.90;;;;;;4847806;29;20054;-86
2023/03/03 08:44:30;;;;;;;22.00;9.90;;;4.00;99.90;;;;;;4819495;29;20046;-86
2023/03/03 08:46:56;;;;;;;24.13;10.30;;;3.60;99.90;;;;;;4836084;29;20092;-86
2023/03/03 08:49:33;;;;;;;24.43;11.03;;;3.70;99.90;;;;;;4815757;29;20066;-85
2023/03/03 08:52:01;;;;;;;23.03;9.63;;;4.10;99.90;;;;;;4836396;29;20094;-90
2023/03/03 08:54:45;;;;;;;22.83;10.20;;;2.80;99.90;;;;;;5105394;24;20053;-88
2023/03/03 08:57:28;;;;;;;22.95;11.07;;;3.30;99.90;;;;;;4860627;29;20442;-88
2023/03/03 08:59:54;;;;;;;22.60;10.57;;;4.70;99.90;;;;;;4844167;29;20060;-88
2023/03/03 09:02:28;;;;;;;25.40;10.97;;;4.60;99.90;;;;;;4843401;29;20049;-88
2023/03/03 09:05:37;;;;;;;24.17;10.23;;;5.10;99.90;;;;;;4854105;23;20425;-88
2023/03/03 09:08:27;;;;;;;25.00;11.17;;;4.20;99.90;;;;;;4823821;29;20209;-89
2023/03/03 09:11:01;;;;;;;23.97;11.13;;;3.30;99.90;;;;;;4828634;29;20046;-89
2023/03/03 09:13:39;;;;;;;23.80;10.83;;;4.40;99.90;;;;;;4827229;29;20042;-89
2023/03/03 09:16:14;;;;;;;26.80;10.87;;;5.70;99.90;;;;;;4839205;29;20530;-88
2023/03/03 09:18:48;;;;;;;24.53;10.80;;;5.00;99.90;;;;;;4827310;29;20517;-89
2023/03/03 09:21:44;;;;;;;23.93;10.80;;;5.10;99.90;;;;;;4827425;29;20486;-88
2023/03/03 09:24:26;;;;;;;22.67;11.10;;;4.30;99.90;;;;;;4828158;29;20131;-87
2023/03/03 09:27:01;;;;;;;18.90;9.83;;;4.80;99.90;;;;;;4845631;29;20046;-90
2023/03/03 09:31:59;;;;;;;18.60;8.80;;;5.20;99.90;;;;;;4849218;23;20121;-88
2023/03/03 09:34:41;;;;;;;19.23;8.80;;;7.00;99.90;;;;;;4835419;29;20512;-89
2023/03/03 09:37:27;;;;;;;20.43;9.17;;;6.70;99.90;;;;;;4814112;29;20048;-90
2023/03/03 09:40:43;;;;;;;19.03;8.23;;;4.90;99.90;;;;;;4828548;29;20065;-90
2023/03/03 09:43:37;;;;;;;16.63;6.30;;;5.30;99.90;;;;;;4832876;29;20050;-96
2023/03/03 11:06:50;;;;;;;16.57;5.30;;;5.90;99.90;;;;;;4877255;23;20498;-96
2023/03/03 11:10:09;;;;;;;11.93;5.13;;;6.90;99.90;;;;;;4816744;29;20046;-94
2023/03/03 11:19:46;;;;;;;14.13;5.67;;;5.70;99.90;;;;;;4821300;29;20027;-96
2023/03/03 11:23:19;;;;;;;17.47;6.47;;;6.80;99.90;;;;;;4868692;23;20055;-96
2023/03/03 11:25:51;;;;;;;16.03;6.33;;;6.80;99.90;;;;;;4806847;29;20058;-96
2023/03/03 11:31:59;;;;;;;14.75;6.32;;;5.80;99.90;;;;;;5029913;24;20062;-95
2023/03/03 11:35:02;;;;;;;14.70;6.13;;;5.20;99.90;;;;;;4823381;29;20054;-95
2023/03/03 11:41:05;;;;;;;14.87;5.80;;;6.00;99.90;;;;;;5108120;23;20058;-95
2023/03/03 11:43:59;;;;;;;14.80;6.57;;;6.10;99.90;;;;;;4833771;29;20117;-96
2023/03/03 11:47:18;;;;;;;13.25;5.95;;;6.00;99.90;;;;;;4844041;29;20050;-96
2023/03/03 11:50:31;;;;;;;15.10;5.67;;;6.00;99.90;;;;;;4822791;29;20058;-96
2023/03/03 11:53:52;;;;;;;12.80;5.90;;;6.70;99.90;;;;;;4845763;23;20042;-96
2023/03/03 12:01:03;;;;;;;12.60;5.03;;;5.60;99.90;;;;;;4850485;29;20119;-95
2023/03/03 12:04:20;;;;;;;12.43;5.13;;;5.70;99.90;;;;;;4841349;29;20109;-96
2023/03/03 12:13:43;;;;;;;10.33;4.90;;;6.40;99.90;;;;;;5322094;24;20065;-96
2023/03/03 12:16:53;;;;;;;13.07;5.83;;;6.40;99.90;;;;;;4821215;29;20109;-92
2023/03/03 12:20:09;;;;;;;12.30;5.80;;;5.60;99.90;;;;;;4834663;29;20054;-96
2023/03/03 12:22:59;;;;;;;13.35;5.65;;;6.70;99.90;;;;;;4793223;29;20150;-96
2023/03/03 12:26:18;;;;;;;11.45;5.45;;;7.40;99.90;;;;;;4841682;29;20136;-96
2023/03/03 12:34:46;;;;;;;12.35;4.95;;;6.90;99.90;;;;;;4928090;23;20399;-93
2023/03/03 12:54:45;;;;;;;9.68;3.20;;;7.50;99.90;;;;;;5105874;23;20035;-96
2023/03/03 13:00:55;;;;;;;8.75;3.30;;;7.20;99.90;;;;;;4979507;23;20503;-96
2023/03/03 13:50:45;;;;;;;8.45;2.10;;;7.50;99.90;;;;;;4847348;29;20295;-96
2023/03/03 13:59:49;;;;;;;8.95;2.50;;;7.50;99.90;;;;;;4851496;29;20061;-96
2023/03/03 14:03:05;;;;;;;8.13;2.35;;;7.50;99.90;;;;;;4817131;29;20043;-96
2023/03/03 14:05:50;;;;;;;9.52;2.42;;;7.40;99.90;;;;;;4827335;29;20051;-96
2023/03/03 14:09:03;;;;;;;7.20;2.35;;;7.60;99.90;;;;;;4814763;29;20038;-96
2023/03/03 14:15:04;;;;;;;6.93;2.25;;;7.80;99.90;;;;;;4923365;23;20041;-94
2023/03/03 14:30:42;;;;;;;12.50;3.78;;;7.50;99.90;;;;;;4812066;29;20086;-91
2023/03/03 14:36:15;;;;;;;13.13;5.53;;;7.30;99.90;;;;;;4853594;29;20057;-94
2023/03/03 14:38:55;;;;;;;8.48;2.65;;;7.70;99.90;;;;;;4873498;29;20049;-92
2023/03/03 14:47:31;;;;;;;10.57;3.08;;;7.30;99.90;;;;;;5049399;23;20125;-95
2023/03/03 14:50:37;;;;;;;7.50;2.10;;;8.20;99.90;;;;;;4833416;29;20089;-96
2023/03/03 14:53:12;;;;;;;9.17;2.50;;;7.40;99.90;;;;;;4796558;29;20141;-94
2023/03/03 15:02:40;;;;;;;7.50;2.00;;;7.60;99.90;;;;;;5758714;23;20024;-93
2023/03/03 15:32:31;;;;;;;6.88;2.00;;;7.80;99.90;;;;;;4820615;29;20089;-95
2023/03/03 15:42:29;;;;;;;;;;;;;;;;;;;;;
2023/03/03 15:58:54;;;;;;;13.00;4.13;;;8.20;99.90;;;;;;4805277;29;20043;-95
2023/03/03 16:01:23;;;;;;;12.47;3.93;;;7.90;99.90;;;;;;4790474;29;20051;-95
2023/03/03 16:27:59;;;;;;;16.83;6.70;;;6.90;99.90;;;;;;4808170;29;20050;-90
2023/03/03 16:31:03;;;;;;;15.83;4.67;;;6.70;99.90;;;;;;4808147;29;20050;-89
2023/03/03 16:40:26;;;;;;;18.30;6.20;;;5.80;99.90;;;;;;4828201;29;20503;-91
2023/03/03 16:42:56;;;;;;;;;;;6.00;99.90;;;;;;4818356;29;20147;-92
2023/03/03 16:45:41;;;;;;;16.90;5.03;;;6.50;99.90;;;;;;4827204;29;19971;-94
2023/03/03 16:51:07;;;;;;;14.57;4.27;;;6.50;99.90;;;;;;4812578;23;20054;-95
2023/03/03 16:54:05;;;;;;;15.27;4.63;;;6.50;99.90;;;;;;4792255;29;20054;-96
2023/03/03 16:57:33;;;;;;;19.57;5.50;;;5.80;99.90;;;;;;4800114;29;20055;-93
2023/03/03 17:00:14;;;;;;;22.93;4.70;;;6.30;99.90;;;;;;4753434;30;20047;-93
2023/03/03 17:03:24;;;;;;;17.80;4.10;;;6.40;99.90;;;;;;4785788;30;20096;-94
2023/03/03 17:05:59;;;;;;;15.97;5.07;;;5.50;99.90;;;;;;4794221;29;20054;-93
2023/03/03 17:08:55;;;;;;;17.13;5.17;;;6.40;99.90;;;;;;4811913;29;20047;-94
2023/03/03 17:18:02;;;;;;;28.23;12.40;;;6.10;99.90;;;;;;4816771;29;20129;-93
2023/03/03 17:20:48;;;;;;;21.80;7.93;;;6.50;99.90;;;;;;4818643;29;20102;-93
2023/03/03 17:27:57;;;;;;;16.67;5.93;;;5.60;99.90;;;;;;4835900;23;20053;-93
2023/03/03 17:31:07;;;;;;;23.97;5.67;;;5.10;99.90;;;;;;4828339;29;20054;-94
2023/03/03 17:34:09;;;;;;;20.90;5.77;;;6.20;99.90;;;;;;4842606;29;20616;-93
2023/03/03 17:37:18;;;;;;;22.53;8.70;;;5.80;99.90;;;;;;4868986;29;20129;-95
2023/03/03 17:40:23;;;;;;;27.10;9.17;;;5.70;99.90;;;;;;4841384;29;20046;-96
2023/03/03 17:43:17;;;;;;;23.00;8.07;;;5.10;99.90;;;;;;4851948;29;20140;-90
2023/03/03 17:45:47;;;;;;;24.80;6.30;;;5.80;99.90;;;;;;4832996;29;20064;-92
2023/03/03 17:49:00;;;;;;;21.83;6.37;;;7.30;99.90;;;;;;4831226;29;20394;-94
2023/03/03 17:51:58;;;;;;;16.80;4.50;;;5.60;99.90;;;;;;4809367;24;20082;-91
2023/03/03 17:55:13;;;;;;;;;;;;;;;;;;;;;
2023/03/03 17:57:51;;;;;;;29.33;9.70;;;5.00;99.90;;;;;;4817768;29;20094;-88
2023/03/03 18:00:38;;;;;;;17.97;5.40;;;5.60;99.90;;;;;;4816044;29;20137;-82
2023/03/03 18:03:26;;;;;;;24.40;7.20;;;5.00;99.90;;;;;;4825239;29;20052;-82
2023/03/03 18:06:32;;;;;;;20.83;7.37;;;5.60;99.90;;;;;;4797454;29;20061;-84
2023/03/03 18:09:46;;;;;;;18.53;4.20;;;5.60;99.90;;;;;;4826891;29;20042;-83
2023/03/03 18:12:45;;;;;;;19.57;4.40;;;5.30;99.90;;;;;;4815297;29;20050;-84
2023/03/03 18:15:19;;;;;;;17.27;4.73;;;5.70;99.90;;;;;;4826544;29;20074;-84
2023/03/03 18:18:19;;;;;;;17.67;4.13;;;5.50;99.90;;;;;;4809345;29;20505;-83
2023/03/03 18:21:04;;;;;;;18.30;4.87;;;5.60;99.90;;;;;;4809875;29;20065;-84
2023/03/03 18:23:38;;;;;;;19.37;4.67;;;6.20;99.90;;;;;;4824954;29;20101;-84
2023/03/03 18:26:56;;;;;;;20.83;5.30;;;5.50;99.90;;;;;;4826022;29;20065;-84
2023/03/03 18:29:30;;;;;;;17.80;5.47;;;5.70;99.90;;;;;;4807181;29;20065;-84
2023/03/03 18:32:20;;;;;;;18.70;3.60;;;5.70;99.90;;;;;;4843996;29;20050;-84
2023/03/03 18:35:30;;;;;;;16.00;3.70;;;5.50;99.90;;;;;;4837045;29;20058;-84
2023/03/03 18:38:14;;;;;;;19.63;3.67;;;6.20;99.90;;;;;;4813706;29;20102;-83
2023/03/03 18:41:00;;;;;;;20.38;4.32;;;7.20;99.90;;;;;;4842140;29;20054;-84
2023/03/03 18:43:44;;;;;;;22.40;3.67;;;6.80;99.90;;;;;;4818219;29;20381;-84
2023/03/03 18:56:56;;;;;;;20.08;4.47;;;4.80;99.90;;;;;;4838040;29;20137;-84
2023/03/03 18:59:35;;;;;;;21.53;5.03;;;5.50;99.90;;;;;;4832333;29;20054;-84
2023/03/03 19:02:22;;;;;;;18.23;3.73;;;6.20;99.90;;;;;;4832665;29;20054;-84
2023/03/03 19:04:55;;;;;;;20.13;3.60;;;5.50;99.90;;;;;;4825157;29;20046;-83
2023/03/03 19:07:39;;;;;;;17.25;3.90;;;6.60;99.90;;;;;;4809395;29;20061;-84
2023/03/03 19:10:42;;;;;;;16.73;4.85;;;5.30;99.90;;;;;;4810118;29;20542;-84
2023/03/03 19:13:33;;;;;;;23.70;5.30;;;5.50;99.90;;;;;;4809506;29;20053;-84
2023/03/03 19:27:44;;;;;;;18.20;4.70;;;4.70;99.90;;;;;;4806928;29;20034;-84
2023/03/03 19:30:27;;;;;;;20.87;3.87;;;5.60;99.90;;;;;;4790717;29;20054;-84
2023/03/03 19:37:01;;;;;;;20.50;4.23;;;4.60;99.90;;;;;;4814383;29;20045;-83
2023/03/03 19:39:52;;;;;;;18.83;3.90;;;5.60;99.90;;;;;;4825480;29;20053;-84
2023/03/03 19:42:38;;;;;;;19.63;4.10;;;6.00;99.90;;;;;;4833081;24;20128;-84
2023/03/03 19:49:21;;;;;;;41.97;19.33;;;5.40;99.90;;;;;;4844127;29;20070;-83
2023/03/03 19:52:01;;;;;;;25.33;7.22;;;5.40;99.90;;;;;;4850052;29;20050;-84
2023/03/03 19:55:11;;;;;;;22.57;6.07;;;5.40;99.90;;;;;;4860491;29;20053;-84
2023/03/03 19:58:17;;;;;;;20.63;6.10;;;4.10;99.90;;;;;;4847797;29;20073;-84
2023/03/03 20:01:34;;;;;;;25.50;6.37;;;4.40;99.90;;;;;;4862602;29;20053;-84
2023/03/03 20:04:16;;;;;;;26.50;7.40;;;5.50;99.90;;;;;;4853246;29;20054;-84
2023/03/03 20:07:46;;;;;;;22.40;4.27;;;4.70;99.90;;;;;;4851394;29;20049;-84
2023/03/03 20:10:58;;;;;;;21.23;4.80;;;4.90;99.90;;;;;;4843992;29;20437;-84
2023/03/03 20:13:55;;;;;;;21.80;5.60;;;5.40;99.90;;;;;;4859504;29;20129;-84
2023/03/03 20:16:49;;;;;;;22.77;5.30;;;5.40;99.90;;;;;;4844959;29;20053;-84
2023/03/03 20:19:38;;;;;;;18.58;4.90;;;5.40;99.90;;;;;;4844847;29;20045;-84
2023/03/03 20:22:48;;;;;;;18.57;6.67;;;5.30;99.90;;;;;;4855929;29;20049;-84
2023/03/03 20:25:46;;;;;;;18.03;4.83;;;5.80;99.90;;;;;;4859910;29;20494;-84
2023/03/03 20:28:56;;;;;;;22.33;4.60;;;5.30;99.90;;;;;;4844602;29;20046;-84
2023/03/03 20:31:49;;;;;;;20.13;5.67;;;5.30;99.90;;;;;;4860626;29;20053;-84
2023/03/03 20:34:44;;;;;;;23.20;5.97;;;5.50;99.90;;;;;;4844609;29;20522;-84
2023/03/03 20:37:35;;;;;;;22.33;4.53;;;5.40;99.90;;;;;;4861133;29;20049;-84
2023/03/03 20:40:18;;;;;;;18.10;5.20;;;5.30;99.90;;;;;;4844139;29;20056;-86
2023/03/03 20:43:30;;;;;;;23.17;3.55;;;4.80;99.90;;;;;;4860436;29;20166;-84
2023/03/03 20:46:25;;;;;;;23.00;5.90;;;5.30;99.90;;;;;;4843664;29;20414;-84
2023/03/03 20:49:26;;;;;;;23.08;5.00;;;4.60;99.90;;;;;;4860943;29;20049;-84
2023/03/03 20:52:16;;;;;;;20.27;3.80;;;5.30;99.90;;;;;;4843286;29;20132;-84
2023/03/03 20:55:18;;;;;;;19.50;3.33;;;5.50;99.90;;;;;;4860690;29;20045;-84
2023/03/03 20:58:14;;;;;;;22.03;4.10;;;5.40;99.90;;;;;;4829191;29;20073;-84
2023/03/03 21:03:36;;;;;;;18.57;3.60;;;5.30;99.90;;;;;;4962090;23;20058;-84
2023/03/03 21:06:13;;;;;;;17.33;3.80;;;5.20;99.90;;;;;;4803932;29;20047;-85
2023/03/03 21:08:56;;;;;;;17.90;3.60;;;5.40;99.90;;;;;;4805011;29;20134;-84
2023/03/03 21:11:43;;;;;;;18.57;3.53;;;6.80;99.90;;;;;;4816042;29;20496;-84
2023/03/03 21:14:30;;;;;;;21.93;4.40;;;5.40;99.90;;;;;;4794586;29;20050;-84
2023/03/03 21:17:31;;;;;;;24.57;6.70;;;6.00;99.90;;;;;;4831052;29;20056;-84
2023/03/03 21:20:44;;;;;;;19.87;3.67;;;4.80;99.90;;;;;;4784438;29;20175;-84
2023/03/03 21:25:47;;;;;;;20.87;3.23;;;5.30;99.90;;;;;;4842939;24;20054;-83
2023/03/03 21:34:38;;;;;;;16.50;3.60;;;5.00;99.90;;;;;;4833107;29;20044;-84